sensor_id;sensor_type;location;lat;lon;timestamp;pressure;altitude;pressure_sealevel;temperature;humidity
67842;BME280;54642;59.126;37.876;2023-02-19T00:01:33;98842.53;;;-5.35;71.16
67842;BME280;54642;59.126;37.876;2023-02-19T00:04:04;98773.47;;;-5.81;71.30
67842;BME280;54642;59.126;37.876;2023-02-19T00:06:31;98773.56;;;-5.79;71.30
67842;BME280;54642;59.126;37.876;2023-02-19T00:08:58;98798.56;;;-5.63;71.45
67842;BME280;54642;59.126;37.876;2023-02-19T00:11:26;98773.09;;;-5.69;71.29
67842;BME280;54642;59.126;37.876;2023-02-19T00:13:54;98823.03;;;-5.39;71.31
67842;BME280;54642;59.126;37.876;2023-02-19T00:16:29;98849.47;;;-5.31;71.35
67842;BME280;54642;59.126;37.876;2023-02-19T00:18:57;98822.28;;;-5.37;71.25
67842;BME280;54642;59.126;37.876;2023-02-19T00:21:24;98826.72;;;-5.31;71.64
67842;BME280;54642;59.126;37.876;2023-02-19T00:23:51;98835.84;;;-5.34;71.15
67842;BME280;54642;59.126;37.876;2023-02-19T00:26:18;98806.91;;;-5.43;71.43
67842;BME280;54642;59.126;37.876;2023-02-19T00:28:46;98810.34;;;-5.41;71.38
67842;BME280;54642;59.126;37.876;2023-02-19T00:33:37;98793.38;;;-5.45;71.17
67842;BME280;54642;59.126;37.876;2023-02-19T00:36:04;98748.66;;;-5.70;71.29
67842;BME280;54642;59.126;37.876;2023-02-19T00:38:31;98813.78;;;-5.39;71.30
67842;BME280;54642;59.126;37.876;2023-02-19T00:41:01;98809.78;;;-5.33;71.26
67842;BME280;54642;59.126;37.876;2023-02-19T00:46:41;98807.38;;;-5.30;71.26
67842;BME280;54642;59.126;37.876;2023-02-19T00:49:14;98757.28;;;-5.65;71.25
67842;BME280;54642;59.126;37.876;2023-02-19T00:51:41;98742.59;;;-5.75;71.52
67842;BME280;54642;59.126;37.876;2023-02-19T00:54:06;98809.09;;;-5.29;71.20
67842;BME280;54642;59.126;37.876;2023-02-19T00:56:32;98807.38;;;-5.30;71.16
67842;BME280;54642;59.126;37.876;2023-02-19T00:58:58;98722.28;;;-5.78;71.40
67842;BME280;54642;59.126;37.876;2023-02-19T01:01:24;98733.59;;;-5.68;71.23
67842;BME280;54642;59.126;37.876;2023-02-19T01:03:51;98733.69;;;-5.65;71.01
67842;BME280;54642;59.126;37.876;2023-02-19T01:06:18;98760.56;;;-5.45;71.27
67842;BME280;54642;59.126;37.876;2023-02-19T01:08:45;98791.09;;;-5.16;70.98
67842;BME280;54642;59.126;37.876;2023-02-19T01:11:12;98716.41;;;-5.55;71.12
67842;BME280;54642;59.126;37.876;2023-02-19T01:13:38;98766.63;;;-5.17;70.87
67842;BME280;54642;59.126;37.876;2023-02-19T01:16:23;98731.63;;;-5.30;70.89
67842;BME280;54642;59.126;37.876;2023-02-19T01:18:49;98773.84;;;-5.04;70.65
67842;BME280;54642;59.126;37.876;2023-02-19T01:21:19;98766.22;;;-5.05;70.61
67842;BME280;54642;59.126;37.876;2023-02-19T01:23:46;98726.47;;;-5.33;70.39
67842;BME280;54642;59.126;37.876;2023-02-19T01:26:15;98764.66;;;-5.02;70.46
67842;BME280;54642;59.126;37.876;2023-02-19T01:28:42;98773.03;;;-5.03;70.09
67842;BME280;54642;59.126;37.876;2023-02-19T01:31:11;98746.97;;;-5.02;70.29
67842;BME280;54642;59.126;37.876;2023-02-19T01:33:38;98723.69;;;-5.17;69.99
67842;BME280;54642;59.126;37.876;2023-02-19T01:36:05;98779.66;;;-4.82;70.28
67842;BME280;54642;59.126;37.876;2023-02-19T01:38:32;98771.38;;;-4.78;69.97
67842;BME280;54642;59.126;37.876;2023-02-19T01:41:01;98773.91;;;-4.78;70.14
67842;BME280;54642;59.126;37.876;2023-02-19T01:43:27;98750.84;;;-4.87;69.97
67842;BME280;54642;59.126;37.876;2023-02-19T01:45:53;98756.06;;;-4.83;69.87
67842;BME280;54642;59.126;37.876;2023-02-19T01:48:35;98672.66;;;-5.32;69.76
67842;BME280;54642;59.126;37.876;2023-02-19T01:51:06;98734.53;;;-4.95;69.91
67842;BME280;54642;59.126;37.876;2023-02-19T01:53:37;98745.78;;;-4.87;69.94
67842;BME280;54642;59.126;37.876;2023-02-19T01:56:05;98751.94;;;-4.81;69.87
67842;BME280;54642;59.126;37.876;2023-02-19T01:58:33;98770.47;;;-4.80;69.74
67842;BME280;54642;59.126;37.876;2023-02-19T02:01:04;98740.75;;;-4.87;69.76
67842;BME280;54642;59.126;37.876;2023-02-19T02:03:31;98702.56;;;-5.19;69.68
67842;BME280;54642;59.126;37.876;2023-02-19T02:06:04;98758.59;;;-4.83;69.77
67842;BME280;54642;59.126;37.876;2023-02-19T02:08:33;98720.88;;;-5.02;69.93
67842;BME280;54642;59.126;37.876;2023-02-19T02:11:19;98753.56;;;-4.83;69.97
67842;BME280;54642;59.126;37.876;2023-02-19T02:13:45;98760.47;;;-4.77;69.79
67842;BME280;54642;59.126;37.876;2023-02-19T02:19:11;98730.19;;;-5.00;69.70
67842;BME280;54642;59.126;37.876;2023-02-19T02:27:26;98698.22;;;-5.23;69.77
67842;BME280;54642;59.126;37.876;2023-02-19T02:35:28;98742.25;;;-4.92;69.79
67842;BME280;54642;59.126;37.876;2023-02-19T02:38:01;98736.16;;;-4.98;69.66
67842;BME280;54642;59.126;37.876;2023-02-19T02:40:30;98720.69;;;-5.07;69.91
67842;BME280;54642;59.126;37.876;2023-02-19T02:42:58;98677.09;;;-5.25;69.69
67842;BME280;54642;59.126;37.876;2023-02-19T02:45:31;98707.16;;;-5.09;69.77
67842;BME280;54642;59.126;37.876;2023-02-19T02:50:43;98732.53;;;-5.06;69.89
67842;BME280;54642;59.126;37.876;2023-02-19T02:53:15;98701.44;;;-5.27;69.85
67842;BME280;54642;59.126;37.876;2023-02-19T02:56:02;98722.69;;;-5.22;70.08
67842;BME280;54642;59.126;37.876;2023-02-19T02:58:33;98730.41;;;-5.18;70.07
67842;BME280;54642;59.126;37.876;2023-02-19T03:01:08;98719.13;;;-5.27;70.26
67842;BME280;54642;59.126;37.876;2023-02-19T03:03:58;98726.78;;;-5.24;70.17
67842;BME280;54642;59.126;37.876;2023-02-19T03:06:29;98738.09;;;-5.14;70.69
67842;BME280;54642;59.126;37.876;2023-02-19T03:09:08;98756.75;;;-5.11;70.43
67842;BME280;54642;59.126;37.876;2023-02-19T03:11:37;98712.34;;;-5.28;70.18
67842;BME280;54642;59.126;37.876;2023-02-19T03:14:32;98613.63;;;-5.83;70.01
67842;BME280;54642;59.126;37.876;2023-02-19T03:17:28;98629.88;;;-5.75;70.14
67842;BME280;54642;59.126;37.876;2023-02-19T03:20:19;98623.53;;;-5.65;69.91
67842;BME280;54642;59.126;37.876;2023-02-19T03:22:47;98716.34;;;-5.11;69.88
67842;BME280;54642;59.126;37.876;2023-02-19T03:25:24;98719.56;;;-5.15;69.67
67842;BME280;54642;59.126;37.876;2023-02-19T03:28:14;98728.97;;;-5.11;70.12
67842;BME280;54642;59.126;37.876;2023-02-19T03:30:46;98680.56;;;-5.46;69.85
67842;BME280;54642;59.126;37.876;2023-02-19T03:33:25;98685.69;;;-5.44;69.90
67842;BME280;54642;59.126;37.876;2023-02-19T03:36:00;98703.84;;;-5.30;69.71
67842;BME280;54642;59.126;37.876;2023-02-19T03:41:18;98692.41;;;-5.45;70.08
67842;BME280;54642;59.126;37.876;2023-02-19T03:44:11;98685.69;;;-5.44;69.86
67842;BME280;54642;59.126;37.876;2023-02-19T03:46:50;98732.78;;;-5.22;69.95
67842;BME280;54642;59.126;37.876;2023-02-19T03:49:32;98723.53;;;-5.22;69.88
67842;BME280;54642;59.126;37.876;2023-02-19T03:52:06;98696.91;;;-5.36;70.06
67842;BME280;54642;59.126;37.876;2023-02-19T03:54:53;98736.22;;;-5.20;70.07
67842;BME280;54642;59.126;37.876;2023-02-19T04:00:40;98703.47;;;-5.41;69.73
67842;BME280;54642;59.126;37.876;2023-02-19T04:03:19;98716.53;;;-5.29;69.87
67842;BME280;54642;59.126;37.876;2023-02-19T04:05:48;98677.66;;;-5.57;69.80
67842;BME280;54642;59.126;37.876;2023-02-19T04:08:19;98698.34;;;-5.43;69.85
67842;BME280;54642;59.126;37.876;2023-02-19T04:10:52;98705.81;;;-5.46;69.90
67842;BME280;54642;59.126;37.876;2023-02-19T04:13:39;98708.97;;;-5.51;69.79
67842;BME280;54642;59.126;37.876;2023-02-19T04:16:10;98706.69;;;-5.45;70.04
67842;BME280;54642;59.126;37.876;2023-02-19T04:18:40;98711.09;;;-5.40;70.00
67842;BME280;54642;59.126;37.876;2023-02-19T04:21:08;98644.97;;;-5.76;69.91
67842;BME280;54642;59.126;37.876;2023-02-19T04:23:41;98708.50;;;-5.41;70.07
67842;BME280;54642;59.126;37.876;2023-02-19T04:26:09;98702.25;;;-5.51;69.77
67842;BME280;54642;59.126;37.876;2023-02-19T04:28:37;98704.69;;;-5.54;69.59
67842;BME280;54642;59.126;37.876;2023-02-19T04:31:03;98706.91;;;-5.62;69.70
67842;BME280;54642;59.126;37.876;2023-02-19T04:33:29;98678.19;;;-5.88;69.75
67842;BME280;54642;59.126;37.876;2023-02-19T04:35:55;98694.63;;;-5.75;69.73
67842;BME280;54642;59.126;37.876;2023-02-19T04:38:21;98675.28;;;-5.99;69.84
67842;BME280;54642;59.126;37.876;2023-02-19T04:40:47;98700.44;;;-5.78;69.98
67842;BME280;54642;59.126;37.876;2023-02-19T04:43:16;98705.25;;;-5.84;69.76
67842;BME280;54642;59.126;37.876;2023-02-19T04:45:42;98675.16;;;-6.02;70.09
67842;BME280;54642;59.126;37.876;2023-02-19T04:48:08;98692.13;;;-5.98;70.10
67842;BME280;54642;59.126;37.876;2023-02-19T04:50:36;98702.16;;;-5.99;70.47
67842;BME280;54642;59.126;37.876;2023-02-19T04:53:02;98674.69;;;-6.14;70.51
67842;BME280;54642;59.126;37.876;2023-02-19T04:55:28;98643.97;;;-6.47;70.63
67842;BME280;54642;59.126;37.876;2023-02-19T04:57:54;98624.63;;;-6.48;70.68
67842;BME280;54642;59.126;37.876;2023-02-19T05:00:20;98639.88;;;-6.45;70.61
67842;BME280;54642;59.126;37.876;2023-02-19T05:02:46;98595.13;;;-6.72;70.71
67842;BME280;54642;59.126;37.876;2023-02-19T05:05:12;98704.38;;;-6.07;70.81
67842;BME280;54642;59.126;37.876;2023-02-19T05:07:37;98680.91;;;-6.27;71.08
67842;BME280;54642;59.126;37.876;2023-02-19T05:10:04;98706.34;;;-6.21;71.18
67842;BME280;54642;59.126;37.876;2023-02-19T05:12:30;98677.13;;;-6.38;71.28
67842;BME280;54642;59.126;37.876;2023-02-19T05:14:59;98669.16;;;-6.47;71.66
67842;BME280;54642;59.126;37.876;2023-02-19T05:17:25;98698.06;;;-6.39;71.59
67842;BME280;54642;59.126;37.876;2023-02-19T05:19:50;98694.63;;;-6.41;71.82
67842;BME280;54642;59.126;37.876;2023-02-19T05:22:17;98648.09;;;-6.71;71.67
67842;BME280;54642;59.126;37.876;2023-02-19T05:24:42;98668.94;;;-6.54;71.89
67842;BME280;54642;59.126;37.876;2023-02-19T05:27:08;98667.31;;;-6.52;71.72
67842;BME280;54642;59.126;37.876;2023-02-19T05:29:34;98692.25;;;-6.38;72.08
67842;BME280;54642;59.126;37.876;2023-02-19T05:32:00;98687.91;;;-6.41;71.93
67842;BME280;54642;59.126;37.876;2023-02-19T05:34:26;98660.59;;;-6.53;71.78
67842;BME280;54642;59.126;37.876;2023-02-19T05:36:52;98614.91;;;-6.81;72.09
67842;BME280;54642;59.126;37.876;2023-02-19T05:39:18;98663.03;;;-6.54;71.87
67842;BME280;54642;59.126;37.876;2023-02-19T05:41:44;98626.84;;;-6.77;71.95
67842;BME280;54642;59.126;37.876;2023-02-19T05:44:10;98617.53;;;-6.78;71.76
67842;BME280;54642;59.126;37.876;2023-02-19T05:46:36;98639.31;;;-6.59;71.71
67842;BME280;54642;59.126;37.876;2023-02-19T05:49:02;98599.19;;;-6.76;71.81
67842;BME280;54642;59.126;37.876;2023-02-19T05:51:29;98569.81;;;-6.96;71.54
67842;BME280;54642;59.126;37.876;2023-02-19T05:53:55;98654.09;;;-6.46;71.47
67842;BME280;54642;59.126;37.876;2023-02-19T05:56:41;98666.09;;;-6.40;71.50
67842;BME280;54642;59.126;37.876;2023-02-19T05:59:19;98654.84;;;-6.48;71.54
67842;BME280;54642;59.126;37.876;2023-02-19T06:01:46;98610.06;;;-6.77;71.45
67842;BME280;54642;59.126;37.876;2023-02-19T06:04:13;98626.34;;;-6.68;71.47
67842;BME280;54642;59.126;37.876;2023-02-19T06:06:39;98648.69;;;-6.55;71.56
67842;BME280;54642;59.126;37.876;2023-02-19T06:09:06;98657.38;;;-6.48;71.55
67842;BME280;54642;59.126;37.876;2023-02-19T06:11:33;98653.88;;;-6.52;71.57
67842;BME280;54642;59.126;37.876;2023-02-19T06:13:58;98657.31;;;-6.50;71.66
67842;BME280;54642;59.126;37.876;2023-02-19T06:16:25;98588.19;;;-6.99;71.63
67842;BME280;54642;59.126;37.876;2023-02-19T06:18:51;98663.81;;;-6.55;71.55
67842;BME280;54642;59.126;37.876;2023-02-19T06:21:18;98665.63;;;-6.53;71.74
67842;BME280;54642;59.126;37.876;2023-02-19T06:23:44;98596.28;;;-6.85;71.52
67842;BME280;54642;59.126;37.876;2023-02-19T06:28:39;98657.81;;;-6.38;71.84
67842;BME280;54642;59.126;37.876;2023-02-19T06:31:06;98649.38;;;-6.38;71.35
67842;BME280;54642;59.126;37.876;2023-02-19T06:33:33;98638.13;;;-6.46;71.31
67842;BME280;54642;59.126;37.876;2023-02-19T06:36:00;98639.34;;;-6.37;71.04
67842;BME280;54642;59.126;37.876;2023-02-19T06:38:27;98650.72;;;-6.25;71.05
67842;BME280;54642;59.126;37.876;2023-02-19T06:40:53;98645.75;;;-6.24;71.12
67842;BME280;54642;59.126;37.876;2023-02-19T06:43:19;98575.06;;;-6.69;71.02
67842;BME280;54642;59.126;37.876;2023-02-19T06:45:45;98632.72;;;-6.35;70.94
67842;BME280;54642;59.126;37.876;2023-02-19T06:48:11;98563.38;;;-6.68;71.01
67842;BME280;54642;59.126;37.876;2023-02-19T06:50:37;98632.25;;;-6.24;71.01
67842;BME280;54642;59.126;37.876;2023-02-19T06:53:03;98572.00;;;-6.62;70.80
67842;BME280;54642;59.126;37.876;2023-02-19T06:55:29;98635.53;;;-6.27;71.04
67842;BME280;54642;59.126;37.876;2023-02-19T06:57:55;98582.28;;;-6.57;70.82
67842;BME280;54642;59.126;37.876;2023-02-19T07:00:21;98632.22;;;-6.26;70.91
67842;BME280;54642;59.126;37.876;2023-02-19T07:02:47;98606.53;;;-6.38;70.82
67842;BME280;54642;59.126;37.876;2023-02-19T07:05:13;98623.72;;;-6.28;70.93
67842;BME280;54642;59.126;37.876;2023-02-19T07:07:38;98606.41;;;-6.41;70.53
67842;BME280;54642;59.126;37.876;2023-02-19T07:10:05;98612.38;;;-6.39;70.66
67842;BME280;54642;59.126;37.876;2023-02-19T07:12:30;98627.00;;;-6.30;70.83
67842;BME280;54642;59.126;37.876;2023-02-19T07:14:56;98636.22;;;-6.31;70.92
67842;BME280;54642;59.126;37.876;2023-02-19T07:17:22;98620.06;;;-6.36;70.59
67842;BME280;54642;59.126;37.876;2023-02-19T07:19:48;98549.84;;;-6.71;70.61
67842;BME280;54642;59.126;37.876;2023-02-19T07:22:14;98573.09;;;-6.55;70.60
67842;BME280;54642;59.126;37.876;2023-02-19T07:24:40;98553.44;;;-6.64;70.45
67842;BME280;54642;59.126;37.876;2023-02-19T07:27:06;98597.53;;;-6.32;70.71
67842;BME280;54642;59.126;37.876;2023-02-19T07:29:32;98596.09;;;-6.25;70.73
67842;BME280;54642;59.126;37.876;2023-02-19T07:31:57;98580.63;;;-6.34;70.57
67842;BME280;54642;59.126;37.876;2023-02-19T07:34:23;98550.63;;;-6.50;70.19
67842;BME280;54642;59.126;37.876;2023-02-19T07:36:49;98607.69;;;-6.07;70.38
67842;BME280;54642;59.126;37.876;2023-02-19T07:39:15;98614.81;;;-5.97;70.42
67842;BME280;54642;59.126;37.876;2023-02-19T07:41:41;98593.09;;;-5.92;70.12
67842;BME280;54642;59.126;37.876;2023-02-19T07:44:07;98526.38;;;-6.24;69.86
67842;BME280;54642;59.126;37.876;2023-02-19T07:46:33;98584.72;;;-5.91;69.69
67842;BME280;54642;59.126;37.876;2023-02-19T07:48:59;98602.03;;;-5.78;69.74
67842;BME280;54642;59.126;37.876;2023-02-19T07:51:25;98577.47;;;-5.82;69.95
67842;BME280;54642;59.126;37.876;2023-02-19T07:53:51;98535.75;;;-5.98;69.80
67842;BME280;54642;59.126;37.876;2023-02-19T07:56:18;98579.66;;;-5.68;69.81
67842;BME280;54642;59.126;37.876;2023-02-19T07:58:44;98575.41;;;-5.69;69.63
67842;BME280;54642;59.126;37.876;2023-02-19T08:01:22;98590.53;;;-5.69;69.47
67842;BME280;54642;59.126;37.876;2023-02-19T08:04:08;98582.50;;;-5.59;69.46
67842;BME280;54642;59.126;37.876;2023-02-19T08:06:35;98541.09;;;-5.88;69.34
67842;BME280;54642;59.126;37.876;2023-02-19T08:09:01;98584.00;;;-5.64;69.44
67842;BME280;54642;59.126;37.876;2023-02-19T08:11:28;98527.31;;;-5.98;69.37
67842;BME280;54642;59.126;37.876;2023-02-19T08:14:12;98547.59;;;-5.71;69.38
67842;BME280;54642;59.126;37.876;2023-02-19T08:16:38;98590.72;;;-5.41;69.57
67842;BME280;54642;59.126;37.876;2023-02-19T08:19:04;98511.09;;;-5.81;69.31
67842;BME280;54642;59.126;37.876;2023-02-19T08:21:30;98466.63;;;-6.03;68.86
67842;BME280;54642;59.126;37.876;2023-02-19T08:23:56;98509.31;;;-5.83;69.40
67842;BME280;54642;59.126;37.876;2023-02-19T08:26:21;98556.63;;;-5.53;69.49
67842;BME280;54642;59.126;37.876;2023-02-19T08:28:47;98543.16;;;-5.54;69.23
67842;BME280;54642;59.126;37.876;2023-02-19T08:31:13;98568.63;;;-5.46;69.29
67842;BME280;54642;59.126;37.876;2023-02-19T08:33:39;98568.75;;;-5.43;69.23
67842;BME280;54642;59.126;37.876;2023-02-19T08:36:06;98565.34;;;-5.44;69.33
67842;BME280;54642;59.126;37.876;2023-02-19T08:38:33;98566.38;;;-5.39;69.34
67842;BME280;54642;59.126;37.876;2023-02-19T08:41:08;98526.66;;;-5.68;69.02
67842;BME280;54642;59.126;37.876;2023-02-19T08:43:35;98524.47;;;-5.59;69.09
67842;BME280;54642;59.126;37.876;2023-02-19T08:46:01;98491.03;;;-5.78;68.99
67842;BME280;54642;59.126;37.876;2023-02-19T08:48:27;98560.63;;;-5.34;68.99
67842;BME280;54642;59.126;37.876;2023-02-19T08:50:59;98472.44;;;-5.80;69.32
67842;BME280;54642;59.126;37.876;2023-02-19T08:53:25;98554.88;;;-5.30;68.99
67842;BME280;54642;59.126;37.876;2023-02-19T08:55:51;98559.16;;;-5.28;68.87
67842;BME280;54642;59.126;37.876;2023-02-19T08:58:17;98546.28;;;-5.36;69.07
67842;BME280;54642;59.126;37.876;2023-02-19T09:00:43;98560.78;;;-5.30;68.77
67842;BME280;54642;59.126;37.876;2023-02-19T09:03:09;98565.09;;;-5.27;68.86
67842;BME280;54642;59.126;37.876;2023-02-19T09:05:36;98491.41;;;-5.65;68.98
67842;BME280;54642;59.126;37.876;2023-02-19T09:08:02;98535.41;;;-5.34;68.80
67842;BME280;54642;59.126;37.876;2023-02-19T09:10:28;98514.22;;;-5.38;68.89
67842;BME280;54642;59.126;37.876;2023-02-19T09:12:54;98539.28;;;-5.19;69.01
67842;BME280;54642;59.126;37.876;2023-02-19T09:15:20;98508.59;;;-5.29;68.64
67842;BME280;54642;59.126;37.876;2023-02-19T09:17:52;98543.06;;;-5.06;68.56
67842;BME280;54642;59.126;37.876;2023-02-19T09:20:18;98440.16;;;-5.64;68.46
67842;BME280;54642;59.126;37.876;2023-02-19T09:22:45;98557.75;;;-4.94;68.35
67842;BME280;54642;59.126;37.876;2023-02-19T09:25:11;98483.56;;;-5.23;68.55
67842;BME280;54642;59.126;37.876;2023-02-19T09:27:37;98551.41;;;-4.83;68.38
67842;BME280;54642;59.126;37.876;2023-02-19T09:30:03;98514.72;;;-4.97;68.39
67842;BME280;54642;59.126;37.876;2023-02-19T09:32:29;98546.63;;;-4.73;68.08
67842;BME280;54642;59.126;37.876;2023-02-19T09:34:55;98542.25;;;-4.79;67.80
67842;BME280;54642;59.126;37.876;2023-02-19T09:37:27;98551.06;;;-4.92;67.75
67842;BME280;54642;59.126;37.876;2023-02-19T09:39:54;98539.78;;;-5.03;67.62
67842;BME280;54642;59.126;37.876;2023-02-19T09:42:26;98506.97;;;-5.29;67.57
67842;BME280;54642;59.126;37.876;2023-02-19T09:44:56;98466.91;;;-5.44;67.72
67842;BME280;54642;59.126;37.876;2023-02-19T09:47:25;98507.31;;;-5.18;67.72
67842;BME280;54642;59.126;37.876;2023-02-19T09:50:05;98532.75;;;-4.86;67.85
67842;BME280;54642;59.126;37.876;2023-02-19T09:52:37;98490.25;;;-4.98;67.81
67842;BME280;54642;59.126;37.876;2023-02-19T09:55:28;98465.78;;;-5.01;67.74
67842;BME280;54642;59.126;37.876;2023-02-19T09:57:58;98521.72;;;-4.61;67.53
67842;BME280;54642;59.126;37.876;2023-02-19T10:00:28;98471.06;;;-4.93;67.59
67842;BME280;54642;59.126;37.876;2023-02-19T10:03:05;98519.03;;;-4.66;67.40
67842;BME280;54642;59.126;37.876;2023-02-19T10:05:32;98525.22;;;-4.57;67.23
67842;BME280;54642;59.126;37.876;2023-02-19T10:07:59;98525.31;;;-4.53;67.71
67842;BME280;54642;59.126;37.876;2023-02-19T10:10:31;98462.84;;;-4.86;67.26
67842;BME280;54642;59.126;37.876;2023-02-19T10:13:21;98512.38;;;-4.64;67.10
67842;BME280;54642;59.126;37.876;2023-02-19T10:18:18;98492.09;;;-4.65;67.13
67842;BME280;54642;59.126;37.876;2023-02-19T10:20:46;98461.22;;;-4.84;66.64
67842;BME280;54642;59.126;37.876;2023-02-19T10:23:14;98499.44;;;-4.73;66.48
67842;BME280;54642;59.126;37.876;2023-02-19T10:25:46;98496.88;;;-4.74;66.67
67842;BME280;54642;59.126;37.876;2023-02-19T10:28:16;98398.22;;;-5.33;66.76
67842;BME280;54642;59.126;37.876;2023-02-19T10:30:44;98516.63;;;-4.63;66.72
67842;BME280;54642;59.126;37.876;2023-02-19T10:33:14;98492.59;;;-4.77;66.20
67842;BME280;54642;59.126;37.876;2023-02-19T10:36:46;98496.94;;;-4.73;66.18
67842;BME280;54642;59.126;37.876;2023-02-19T10:39:36;98490.06;;;-4.77;66.19
67842;BME280;54642;59.126;37.876;2023-02-19T10:42:03;98435.19;;;-5.08;66.13
67842;BME280;54642;59.126;37.876;2023-02-19T10:44:37;98495.34;;;-4.69;66.28
67842;BME280;54642;59.126;37.876;2023-02-19T10:47:07;98474.44;;;-4.64;66.12
67842;BME280;54642;59.126;37.876;2023-02-19T10:49:36;98487.19;;;-4.61;66.17
67842;BME280;54642;59.126;37.876;2023-02-19T10:52:31;98476.41;;;-4.55;66.03
67842;BME280;54642;59.126;37.876;2023-02-19T10:55:26;98467.97;;;-4.55;65.82
67842;BME280;54642;59.126;37.876;2023-02-19T10:57:54;98450.22;;;-4.57;65.70
67842;BME280;54642;59.126;37.876;2023-02-19T11:00:25;98459.75;;;-4.48;65.73
67842;BME280;54642;59.126;37.876;2023-02-19T11:03:27;98474.41;;;-4.36;65.59
67842;BME280;54642;59.126;37.876;2023-02-19T11:05:59;98462.63;;;-4.36;65.78
67842;BME280;54642;59.126;37.876;2023-02-19T11:08:27;98411.31;;;-4.62;65.73
67842;BME280;54642;59.126;37.876;2023-02-19T11:10:54;98407.09;;;-4.62;65.62
67842;BME280;54642;59.126;37.876;2023-02-19T11:13:23;98468.16;;;-4.19;65.73
67842;BME280;54642;59.126;37.876;2023-02-19T11:15:53;98397.44;;;-4.46;65.60
67842;BME280;54642;59.126;37.876;2023-02-19T11:18:26;98462.63;;;-4.06;65.66
67842;BME280;54642;59.126;37.876;2023-02-19T11:20:58;98443.16;;;-4.08;65.91
67842;BME280;54642;59.126;37.876;2023-02-19T11:25:58;98386.44;;;-4.48;65.88
67842;BME280;54642;59.126;37.876;2023-02-19T11:28:32;98457.44;;;-4.10;65.72
67842;BME280;54642;59.126;37.876;2023-02-19T11:36:35;98436.91;;;-3.57;64.70
67842;BME280;54642;59.126;37.876;2023-02-19T11:50:05;98444.44;;;-3.59;63.87
67842;BME280;54642;59.126;37.876;2023-02-19T11:58:26;98459.81;;;-3.18;64.08
67842;BME280;54642;59.126;37.876;2023-02-19T12:06:34;98433.53;;;-2.03;63.15
67842;BME280;54642;59.126;37.876;2023-02-19T12:16:53;98411.91;;;-1.82;62.40
67842;BME280;54642;59.126;37.876;2023-02-19T12:25:07;98424.13;;;-1.08;61.02
67842;BME280;54642;59.126;37.876;2023-02-19T12:44:46;98395.50;;;-1.51;59.87
67842;BME280;54642;59.126;37.876;2023-02-19T12:47:38;98411.72;;;-1.92;60.19
67842;BME280;54642;59.126;37.876;2023-02-19T12:52:40;98368.22;;;-2.95;60.94
67842;BME280;54642;59.126;37.876;2023-02-19T12:57:45;98422.72;;;-3.14;61.36
67842;BME280;54642;59.126;37.876;2023-02-19T13:00:34;98413.06;;;-3.31;61.88
67842;BME280;54642;59.126;37.876;2023-02-19T13:03:29;98429.09;;;-3.30;61.72
67842;BME280;54642;59.126;37.876;2023-02-19T13:05:58;98428.72;;;-3.46;61.61
67842;BME280;54642;59.126;37.876;2023-02-19T13:08:40;98438.50;;;-3.61;61.90
67842;BME280;54642;59.126;37.876;2023-02-19T13:11:30;98420.41;;;-3.75;61.90
67842;BME280;54642;59.126;37.876;2023-02-19T13:14:06;98427.56;;;-3.92;61.86
67842;BME280;54642;59.126;37.876;2023-02-19T13:16:41;98412.06;;;-4.04;62.23
67842;BME280;54642;59.126;37.876;2023-02-19T13:19:09;98413.38;;;-4.18;62.45
67842;BME280;54642;59.126;37.876;2023-02-19T13:21:40;98419.38;;;-4.15;62.36
67842;BME280;54642;59.126;37.876;2023-02-19T13:24:38;98424.22;;;-4.23;62.44
67842;BME280;54642;59.126;37.876;2023-02-19T13:27:15;98433.03;;;-4.08;62.59
67842;BME280;54642;59.126;37.876;2023-02-19T13:37:53;98423.16;;;-4.31;62.89
67842;BME280;54642;59.126;37.876;2023-02-19T13:40:39;98440.19;;;-4.25;62.96
67842;BME280;54642;59.126;37.876;2023-02-19T13:43:24;98384.16;;;-4.69;62.86
67842;BME280;54642;59.126;37.876;2023-02-19T13:46:06;98460.09;;;-4.36;62.99
67842;BME280;54642;59.126;37.876;2023-02-19T13:48:38;98362.63;;;-4.85;63.16
67842;BME280;54642;59.126;37.876;2023-02-19T13:53:59;98447.09;;;-4.48;63.26
67842;BME280;54642;59.126;37.876;2023-02-19T14:09:52;98461.13;;;-4.60;63.66
67842;BME280;54642;59.126;37.876;2023-02-19T14:12:20;98373.59;;;-5.13;63.82
67842;BME280;54642;59.126;37.876;2023-02-19T14:14:50;98481.34;;;-4.58;63.81
67842;BME280;54642;59.126;37.876;2023-02-19T14:17:45;98488.00;;;-4.62;63.90
67842;BME280;54642;59.126;37.876;2023-02-19T14:25:40;98483.50;;;-4.72;63.97
67842;BME280;54642;59.126;37.876;2023-02-19T14:30:50;98417.28;;;-5.16;63.99
67842;BME280;54642;59.126;37.876;2023-02-19T14:33:20;98463.59;;;-4.88;64.13
67842;BME280;54642;59.126;37.876;2023-02-19T14:35:51;98456.53;;;-5.00;64.14
67842;BME280;54642;59.126;37.876;2023-02-19T14:40:53;98476.84;;;-4.95;64.21
67842;BME280;54642;59.126;37.876;2023-02-19T14:43:22;98481.91;;;-4.95;64.53
67842;BME280;54642;59.126;37.876;2023-02-19T14:46:03;98385.78;;;-5.55;64.24
67842;BME280;54642;59.126;37.876;2023-02-19T14:48:38;98446.53;;;-5.23;64.14
67842;BME280;54642;59.126;37.876;2023-02-19T14:51:13;98461.13;;;-5.14;64.41
67842;BME280;54642;59.126;37.876;2023-02-19T14:53:43;98494.31;;;-5.03;64.38
67842;BME280;54642;59.126;37.876;2023-02-19T14:56:22;98498.50;;;-5.04;65.00
67842;BME280;54642;59.126;37.876;2023-02-19T14:59:26;98485.63;;;-5.11;64.64
67842;BME280;54642;59.126;37.876;2023-02-19T15:02:12;98494.78;;;-5.15;64.70
67842;BME280;54642;59.126;37.876;2023-02-19T15:04:38;98471.59;;;-5.29;64.73
67842;BME280;54642;59.126;37.876;2023-02-19T15:07:07;98418.22;;;-5.67;64.79
67842;BME280;54642;59.126;37.876;2023-02-19T15:09:41;98468.28;;;-5.53;64.92
67842;BME280;54642;59.126;37.876;2023-02-19T15:12:20;98404.13;;;-5.86;64.82
67842;BME280;54642;59.126;37.876;2023-02-19T15:14:48;98433.09;;;-5.75;65.08
67842;BME280;54642;59.126;37.876;2023-02-19T15:17:25;98487.16;;;-5.42;65.00
67842;BME280;54642;59.126;37.876;2023-02-19T15:19:52;98484.38;;;-5.50;65.23
67842;BME280;54642;59.126;37.876;2023-02-19T15:22:23;98492.13;;;-5.45;65.16
67842;BME280;54642;59.126;37.876;2023-02-19T15:24:49;98461.06;;;-5.68;65.13